createdAt,value
2023-03-17T00:00:23.554Z,72.38
2023-03-17T00:01:23.554Z,72.68
2023-03-17T00:02:23.589Z,72.96
2023-03-17T00:03:23.644Z,72.17
2023-03-17T00:04:23.544Z,71.86
2023-03-17T00:05:23.531Z,73.88
2023-03-17T00:06:23.524Z,73.91
2023-03-17T00:07:23.524Z,72.58
2023-03-17T00:08:23.517Z,74.22
2023-03-17T00:09:23.537Z,73.40
2023-03-17T00:10:23.509Z,73.09
2023-03-17T00:11:23.503Z,73.40
2023-03-17T00:12:23.501Z,73.09
2023-03-17T00:13:23.491Z,72.78
2023-03-17T00:14:23.487Z,72.58
2023-03-17T00:15:23.482Z,73.40
2023-03-17T00:16:23.493Z,73.91
2023-03-17T00:17:23.473Z,74.22
2023-03-17T00:18:23.467Z,73.61
2023-03-17T00:19:23.462Z,73.40
2023-03-17T00:20:23.456Z,73.09
2023-03-17T00:21:23.462Z,73.61
2023-03-17T00:22:23.447Z,74.12
2023-03-17T00:23:23.445Z,73.30
2023-03-17T00:24:23.436Z,73.91
2023-03-17T00:25:23.470Z,73.61
2023-03-17T00:26:23.438Z,74.22
2023-03-17T00:27:23.424Z,74.33
2023-03-17T00:28:23.422Z,74.33
2023-03-17T00:29:23.417Z,74.74
2023-03-17T00:30:23.427Z,75.49
2023-03-17T00:31:23.570Z,73.61
2023-03-17T00:32:23.398Z,73.19
2023-03-17T00:33:23.399Z,72.78
2023-03-17T00:34:23.472Z,72.99
2023-03-17T00:35:23.393Z,73.40
2023-03-17T00:36:23.379Z,73.19
2023-03-17T00:37:23.380Z,73.91
2023-03-17T00:38:23.370Z,73.91
2023-03-17T00:39:23.366Z,73.30
2023-03-17T00:40:23.359Z,73.40
2023-03-17T00:41:23.378Z,73.30
2023-03-17T00:42:23.351Z,73.50
2023-03-17T00:43:23.356Z,74.53
2023-03-17T00:44:23.336Z,74.33
2023-03-17T00:45:23.334Z,74.12
2023-03-17T00:46:23.383Z,74.12
2023-03-17T00:47:23.324Z,73.50
2023-03-17T00:48:23.323Z,74.12
2023-03-17T00:49:23.317Z,73.81
2023-03-17T00:50:23.306Z,73.50
2023-03-17T00:51:23.360Z,73.30
2023-03-17T00:52:23.305Z,73.71
2023-03-17T00:53:23.296Z,73.91
2023-03-17T00:54:23.296Z,73.50
2023-03-17T00:55:23.286Z,73.85
2023-03-17T00:56:23.283Z,73.64
2023-03-17T00:57:23.300Z,73.85
2023-03-17T00:58:23.268Z,74.53
2023-03-17T00:59:23.267Z,74.22
2023-03-17T01:00:23.265Z,74.26
2023-03-17T01:01:23.291Z,74.43
2023-03-17T01:02:23.292Z,75.15
2023-03-17T01:03:23.245Z,74.43
2023-03-17T01:04:23.253Z,74.22
2023-03-17T01:05:23.250Z,74.15
2023-03-17T01:06:23.230Z,74.46
2023-03-17T01:07:23.224Z,74.26
2023-03-17T01:08:23.220Z,74.46
2023-03-17T01:09:23.219Z,75.59
2023-03-17T01:10:23.212Z,75.90
2023-03-17T01:11:23.213Z,75.80
2023-03-17T01:12:23.201Z,74.98
2023-03-17T01:13:23.215Z,74.36
2023-03-17T01:14:23.199Z,75.18
2023-03-17T01:15:23.189Z,75.29
2023-03-17T01:16:23.204Z,74.26
2023-03-17T01:17:23.194Z,74.05
2023-03-17T01:18:23.319Z,74.36
2023-03-17T01:19:23.176Z,74.57
2023-03-17T01:20:23.161Z,75.08
2023-03-17T01:21:23.160Z,74.98
2023-03-17T01:22:23.152Z,74.36
2023-03-17T01:23:23.181Z,74.05
2023-03-17T01:24:23.141Z,74.36
2023-03-17T01:25:23.150Z,74.26
2023-03-17T01:26:25.716Z,74.26
2023-03-17T01:27:23.132Z,74.36
2023-03-17T01:28:23.338Z,73.95
2023-03-17T01:29:23.143Z,73.33
2023-03-17T01:30:23.114Z,73.64
2023-03-17T01:31:23.175Z,73.33
2023-03-17T01:32:23.121Z,73.44
2023-03-17T01:33:23.105Z,73.19
2023-03-17T01:34:23.104Z,73.54
2023-03-17T01:35:23.096Z,73.91
2023-03-17T01:36:23.084Z,74.36
2023-03-17T01:37:23.082Z,73.91
2023-03-17T01:38:23.086Z,73.91
2023-03-17T01:39:23.076Z,73.44
2023-03-17T01:40:23.065Z,73.09
2023-03-17T01:41:23.062Z,74.15
2023-03-17T01:42:23.060Z,73.13
2023-03-17T01:43:23.065Z,73.23
2023-03-17T01:44:23.048Z,72.68
2023-03-17T01:45:23.063Z,72.81
2023-03-17T01:46:23.061Z,73.40
2023-03-17T01:47:23.035Z,73.19
2023-03-17T01:48:23.034Z,72.78
2023-03-17T01:49:23.028Z,72.89
2023-03-17T01:50:23.017Z,72.47
2023-03-17T01:51:23.013Z,72.47
2023-03-17T01:52:23.020Z,71.96
2023-03-17T01:53:23.004Z,72.47
2023-03-17T01:54:23.004Z,72.68
2023-03-17T01:55:22.997Z,72.47
2023-03-17T01:56:22.991Z,73.30
2023-03-17T01:57:22.985Z,72.78
2023-03-17T01:58:22.983Z,73.30
2023-03-17T01:59:22.973Z,72.68
2023-03-17T02:00:22.969Z,72.99
2023-03-17T02:01:23.178Z,72.78
2023-03-17T02:02:22.958Z,72.89
2023-03-17T02:03:22.969Z,72.78
2023-03-17T02:04:23.028Z,72.58
2023-03-17T02:05:22.950Z,73.09
2023-03-17T02:06:22.941Z,72.81
2023-03-17T02:07:22.952Z,72.72
2023-03-17T02:08:22.935Z,72.99
2023-03-17T02:09:22.928Z,73.40
2023-03-17T02:10:22.920Z,73.02
2023-03-17T02:11:22.924Z,72.68
2023-03-17T02:12:22.911Z,74.02
2023-03-17T02:13:22.905Z,74.12
2023-03-17T02:14:22.900Z,73.40
2023-03-17T02:15:22.896Z,72.81
2023-03-17T02:16:22.946Z,73.61
2023-03-17T02:17:22.967Z,73.54
2023-03-17T02:18:22.880Z,73.71
2023-03-17T02:19:22.879Z,74.53
2023-03-17T02:20:22.869Z,74.46
2023-03-17T02:21:22.869Z,72.78
2023-03-17T02:22:22.859Z,73.19
2023-03-17T02:23:22.891Z,73.23
2023-03-17T02:24:22.849Z,72.92
2023-03-17T02:25:22.843Z,74.36
2023-03-17T02:26:23.090Z,73.13
2023-03-17T02:27:22.837Z,73.30
2023-03-17T02:28:22.832Z,72.68
2023-03-17T02:29:22.833Z,72.38
2023-03-17T02:30:22.819Z,73.19
2023-03-17T02:31:22.828Z,73.54
2023-03-17T02:32:22.825Z,72.72
2023-03-17T02:33:22.827Z,72.41
2023-03-17T02:34:22.800Z,72.00
2023-03-17T02:35:22.795Z,72.81
2023-03-17T02:36:22.851Z,73.91
2023-03-17T02:37:22.791Z,74.43
2023-03-17T02:38:22.789Z,75.04
2023-03-17T02:39:22.778Z,75.90
2023-03-17T02:40:22.773Z,75.70
2023-03-17T02:41:22.768Z,75.08
2023-03-17T02:42:22.764Z,75.08
2023-03-17T02:43:22.757Z,73.74
2023-03-17T02:44:22.758Z,73.33
2023-03-17T02:45:22.750Z,74.57
2023-03-17T02:46:22.845Z,74.36
2023-03-17T02:47:22.740Z,74.50
2023-03-17T02:48:22.738Z,74.08
2023-03-17T02:49:22.753Z,74.60
2023-03-17T02:50:22.728Z,75.01
2023-03-17T02:51:22.722Z,75.84
2023-03-17T02:52:22.718Z,75.94
2023-03-17T02:53:22.718Z,75.12
2023-03-17T02:54:22.710Z,74.80
2023-03-17T02:55:22.717Z,74.50
2023-03-17T02:56:22.698Z,74.29
2023-03-17T02:57:22.700Z,74.19
2023-03-17T02:58:22.688Z,74.19
2023-03-17T02:59:22.690Z,73.36
2023-03-17T03:00:22.690Z,73.78
2023-03-17T03:01:22.709Z,74.08
2023-03-17T03:02:22.723Z,74.40
2023-03-17T03:03:22.665Z,74.29
2023-03-17T03:04:22.663Z,74.40
2023-03-17T03:05:22.678Z,74.29
2023-03-17T03:06:22.651Z,74.70
2023-03-17T03:07:22.650Z,75.32
2023-03-17T03:08:22.641Z,74.91
2023-03-17T03:09:22.634Z,74.60
2023-03-17T03:10:22.631Z,74.50
2023-03-17T03:11:22.625Z,74.53
2023-03-17T03:12:22.620Z,74.63
2023-03-17T03:13:22.617Z,73.61
2023-03-17T03:14:22.618Z,74.12
2023-03-17T03:15:22.618Z,73.26
2023-03-17T03:16:22.611Z,74.40
2023-03-17T03:17:22.597Z,75.12
2023-03-17T03:18:22.595Z,74.12
2023-03-17T03:19:22.585Z,73.78
2023-03-17T03:20:22.591Z,74.29
2023-03-17T03:21:22.609Z,74.33
2023-03-17T03:22:22.583Z,74.43
2023-03-17T03:23:22.593Z,74.22
2023-03-17T03:24:22.568Z,75.05
2023-03-17T03:25:22.557Z,74.22
2023-03-17T03:26:22.555Z,74.33
2023-03-17T03:27:22.544Z,73.30
2023-03-17T03:28:22.543Z,74.02
2023-03-17T03:29:22.539Z,74.33
2023-03-17T03:30:22.542Z,73.40
2023-03-17T03:31:22.615Z,74.33
2023-03-17T03:32:22.523Z,73.30
2023-03-17T03:33:22.537Z,73.91
2023-03-17T03:34:22.515Z,74.33
2023-03-17T03:35:22.507Z,74.02
2023-03-17T03:36:22.523Z,73.40
2023-03-17T03:37:22.535Z,73.81
2023-03-17T03:38:22.499Z,74.02
2023-03-17T03:39:22.490Z,74.02
2023-03-17T03:40:22.484Z,73.91
2023-03-17T03:41:22.493Z,74.02
2023-03-17T03:42:22.474Z,73.71
2023-03-17T03:43:23.897Z,73.71
2023-03-17T03:44:22.468Z,73.91
2023-03-17T03:45:22.465Z,73.88
2023-03-17T03:46:22.457Z,73.40
2023-03-17T03:47:22.443Z,74.02
2023-03-17T03:48:22.445Z,74.19
2023-03-17T03:49:22.435Z,74.33
2023-03-17T03:50:22.436Z,73.50
2023-03-17T03:51:22.429Z,73.71
2023-03-17T03:52:22.426Z,73.40
2023-03-17T03:53:22.438Z,73.61
2023-03-17T03:54:22.426Z,73.91
2023-03-17T03:55:22.403Z,73.40
2023-03-17T03:56:22.399Z,73.98
2023-03-17T03:57:22.393Z,74.22
2023-03-17T03:58:22.392Z,75.94
2023-03-17T03:59:22.390Z,75.46
2023-03-17T04:00:22.381Z,74.02
2023-03-17T04:01:22.373Z,74.33
2023-03-17T04:02:22.462Z,74.74
2023-03-17T04:03:22.376Z,75.77
2023-03-17T04:04:22.397Z,75.25
2023-03-17T04:05:22.358Z,75.25
2023-03-17T04:06:22.350Z,74.53
2023-03-17T04:07:22.350Z,74.53
2023-03-17T04:08:22.344Z,74.53
2023-03-17T04:09:22.362Z,74.43
2023-03-17T04:10:22.330Z,74.12
2023-03-17T04:11:22.324Z,74.63
2023-03-17T04:12:22.328Z,74.74
2023-03-17T04:13:22.329Z,74.22
2023-03-17T04:14:22.311Z,74.33
2023-03-17T04:15:22.298Z,73.71
2023-03-17T04:16:22.343Z,73.81
2023-03-17T04:17:22.298Z,74.12
2023-03-17T04:18:22.295Z,73.71
2023-03-17T04:19:22.396Z,73.61
2023-03-17T04:20:22.284Z,74.43
2023-03-17T04:21:22.298Z,74.33
2023-03-17T04:22:22.266Z,74.53
2023-03-17T04:23:22.263Z,74.12
2023-03-17T04:24:22.276Z,74.43
2023-03-17T04:25:22.275Z,74.33
2023-03-17T04:26:22.249Z,74.53
2023-03-17T04:27:22.239Z,74.63
2023-03-17T04:28:22.238Z,74.33
2023-03-17T04:29:22.230Z,75.67
2023-03-17T04:30:22.224Z,74.53
2023-03-17T04:31:22.621Z,74.12
2023-03-17T04:32:22.221Z,74.02
2023-03-17T04:33:22.212Z,74.53
2023-03-17T04:34:22.208Z,74.33
2023-03-17T04:35:22.199Z,74.43
2023-03-17T04:36:22.198Z,74.43
2023-03-17T04:37:22.192Z,74.63
2023-03-17T04:38:22.190Z,74.63
2023-03-17T04:39:22.181Z,74.33
2023-03-17T04:40:22.181Z,74.16
2023-03-17T04:41:22.213Z,74.05
2023-03-17T04:42:22.173Z,74.16
2023-03-17T04:43:22.161Z,74.46
2023-03-17T04:44:22.157Z,74.22
2023-03-17T04:45:22.154Z,74.36
2023-03-17T04:46:22.147Z,75.56
2023-03-17T04:47:22.141Z,75.18
2023-03-17T04:48:22.142Z,75.60
2023-03-17T04:49:22.133Z,75.39
2023-03-17T04:50:22.133Z,74.67
2023-03-17T04:51:22.130Z,74.57
2023-03-17T04:52:22.120Z,75.29
2023-03-17T04:53:22.116Z,75.90
2023-03-17T04:54:22.108Z,75.08
2023-03-17T04:55:22.104Z,74.57
2023-03-17T04:56:22.105Z,74.67
2023-03-17T04:57:22.118Z,74.57
2023-03-17T04:58:30.484Z,74.16
2023-03-17T04:59:22.083Z,74.46
2023-03-17T05:00:22.085Z,73.85
2023-03-17T05:01:22.144Z,74.16
2023-03-17T05:02:22.156Z,74.16
2023-03-17T05:03:27.287Z,73.95
2023-03-17T05:04:31.315Z,74.57
2023-03-17T05:05:22.056Z,74.26
2023-03-17T05:06:22.051Z,74.98
2023-03-17T05:07:22.041Z,75.87
2023-03-17T05:08:22.043Z,76.01
2023-03-17T05:09:22.032Z,76.11
2023-03-17T05:10:22.030Z,75.67
2023-03-17T05:11:22.029Z,75.08
2023-03-17T05:12:22.025Z,75.08
2023-03-17T05:13:22.116Z,76.01
2023-03-17T05:14:22.022Z,75.70
2023-03-17T05:15:22.004Z,74.36
2023-03-17T05:16:22.069Z,74.67
2023-03-17T05:17:22.018Z,74.46
2023-03-17T05:18:22.000Z,74.36
2023-03-17T05:19:21.988Z,74.67
2023-03-17T05:20:21.981Z,74.16
2023-03-17T05:21:22.004Z,74.16
2023-03-17T05:22:21.967Z,74.57
2023-03-17T05:23:21.966Z,74.36
2023-03-17T05:24:21.964Z,74.57
2023-03-17T05:25:21.951Z,74.67
2023-03-17T05:26:21.949Z,74.05
2023-03-17T05:27:21.948Z,73.50
2023-03-17T05:28:21.951Z,74.57
2023-03-17T05:29:21.952Z,74.26
2023-03-17T05:30:21.935Z,74.77
2023-03-17T05:31:21.966Z,74.26
2023-03-17T05:32:22.322Z,75.08
2023-03-17T05:33:21.943Z,75.87
2023-03-17T05:34:21.913Z,76.63
2023-03-17T05:35:21.909Z,75.08
2023-03-17T05:36:21.902Z,74.98
2023-03-17T05:37:21.893Z,75.81
2023-03-17T05:38:21.892Z,76.73
2023-03-17T05:39:21.887Z,76.63
2023-03-17T05:40:23.780Z,76.42
2023-03-17T05:41:21.884Z,77.14
2023-03-17T05:42:21.876Z,77.55
2023-03-17T05:43:21.891Z,76.93
2023-03-17T05:44:21.870Z,77.55
2023-03-17T05:45:21.876Z,77.55
2023-03-17T05:46:21.904Z,78.58
2023-03-17T05:47:21.845Z,78.48
2023-03-17T05:48:21.840Z,78.69
2023-03-17T05:49:21.834Z,78.48
2023-03-17T05:50:21.844Z,79.00
2023-03-17T05:51:21.824Z,79.00
2023-03-17T05:52:21.819Z,79.41
2023-03-17T05:53:21.816Z,79.34
2023-03-17T05:54:21.809Z,79.20
2023-03-17T05:55:21.803Z,79.41
2023-03-17T05:56:21.803Z,79.41
2023-03-17T05:57:21.795Z,79.72
2023-03-17T05:58:21.795Z,79.75
2023-03-17T05:59:21.787Z,79.55
2023-03-17T06:00:21.797Z,79.86
2023-03-17T06:01:21.794Z,79.86
2023-03-17T06:02:21.813Z,79.75
2023-03-17T06:03:21.781Z,79.96
2023-03-17T06:04:21.764Z,80.02
2023-03-17T06:05:21.757Z,79.86
2023-03-17T06:06:21.755Z,79.44
2023-03-17T06:07:21.748Z,78.93
2023-03-17T06:08:21.761Z,78.00
2023-03-17T06:09:21.742Z,78.11
2023-03-17T06:10:21.736Z,77.48
2023-03-17T06:11:21.723Z,78.00
2023-03-17T06:12:21.723Z,78.00
2023-03-17T06:13:21.718Z,78.31
2023-03-17T06:14:21.713Z,78.11
2023-03-17T06:15:21.714Z,77.08
2023-03-17T06:16:21.812Z,76.53
2023-03-17T06:17:21.721Z,76.35
2023-03-17T06:18:21.694Z,76.56
2023-03-17T06:19:21.690Z,76.66
2023-03-17T06:20:21.685Z,76.04
2023-03-17T06:21:21.687Z,76.53
2023-03-17T06:22:21.687Z,76.25
2023-03-17T06:23:21.682Z,76.46
2023-03-17T06:24:21.668Z,77.80
2023-03-17T06:25:21.668Z,76.32
2023-03-17T06:26:21.654Z,75.81
2023-03-17T06:27:21.654Z,75.18
2023-03-17T06:28:21.646Z,75.49
2023-03-17T06:29:21.647Z,75.70
2023-03-17T06:30:21.638Z,75.08
2023-03-17T06:31:21.683Z,75.29
2023-03-17T06:32:21.626Z,75.70
2023-03-17T06:33:21.640Z,75.67
2023-03-17T06:34:21.616Z,75.87
2023-03-17T06:35:21.654Z,76.18
2023-03-17T06:36:21.608Z,75.97
2023-03-17T06:37:21.600Z,75.87
2023-03-17T06:38:21.594Z,75.25
2023-03-17T06:39:21.595Z,74.22
2023-03-17T06:40:21.605Z,74.53
2023-03-17T06:41:21.581Z,74.33
2023-03-17T06:42:21.576Z,74.74
2023-03-17T06:43:21.568Z,74.74
2023-03-17T06:44:21.568Z,75.01
2023-03-17T06:45:21.557Z,75.32
2023-03-17T06:46:21.623Z,75.84
2023-03-17T06:47:21.754Z,74.53
2023-03-17T06:48:21.546Z,75.42
2023-03-17T06:49:21.559Z,75.63
2023-03-17T06:50:21.532Z,75.12
2023-03-17T06:51:21.531Z,74.50
2023-03-17T06:52:21.522Z,74.29
2023-03-17T06:53:21.526Z,74.50
2023-03-17T06:54:21.516Z,74.50
2023-03-17T06:55:21.517Z,74.46
2023-03-17T06:56:29.832Z,74.46
2023-03-17T06:57:21.509Z,73.95
2023-03-17T06:58:21.505Z,74.26
2023-03-17T06:59:21.498Z,74.36
2023-03-17T07:00:21.485Z,74.05
2023-03-17T07:01:21.520Z,74.22
2023-03-17T07:02:21.477Z,73.13
2023-03-17T07:03:21.472Z,74.05
2023-03-17T07:04:21.605Z,73.91
2023-03-17T07:05:21.485Z,74.22
2023-03-17T07:06:21.454Z,74.22
2023-03-17T07:07:21.451Z,74.33
2023-03-17T07:08:21.447Z,74.12
2023-03-17T07:09:21.448Z,74.63
2023-03-17T07:10:21.434Z,75.97
2023-03-17T07:11:21.439Z,75.83
2023-03-17T07:12:21.425Z,75.46
2023-03-17T07:13:21.431Z,74.43
2023-03-17T07:14:21.415Z,74.63
2023-03-17T07:15:21.419Z,74.50
2023-03-17T07:16:21.537Z,75.21
2023-03-17T07:17:21.413Z,74.19
2023-03-17T07:18:21.401Z,73.98
2023-03-17T07:19:21.393Z,74.91
2023-03-17T07:20:21.406Z,74.29
2023-03-17T07:21:21.423Z,75.12
2023-03-17T07:22:21.388Z,75.01
2023-03-17T07:23:21.384Z,74.26
2023-03-17T07:24:21.369Z,75.49
2023-03-17T07:25:21.365Z,75.08
2023-03-17T07:26:21.372Z,75.08
2023-03-17T07:27:23.053Z,75.80
2023-03-17T07:28:21.362Z,74.46
2023-03-17T07:29:21.379Z,73.81
2023-03-17T07:30:21.372Z,74.12
2023-03-17T07:31:21.412Z,72.78
2023-03-17T07:32:21.351Z,72.78
2023-03-17T07:33:21.420Z,73.68
2023-03-17T07:34:21.328Z,73.57
2023-03-17T07:35:21.367Z,73.06
2023-03-17T07:36:21.316Z,72.41
2023-03-17T07:37:21.341Z,72.00
2023-03-17T07:38:21.308Z,73.50
2023-03-17T07:39:21.308Z,71.45
2023-03-17T07:40:21.327Z,70.64
2023-03-17T07:41:21.347Z,70.53
2023-03-17T07:42:21.293Z,71.11
2023-03-17T07:43:21.287Z,70.91
2023-03-17T07:44:21.276Z,70.70
2023-03-17T07:45:21.276Z,70.60
2023-03-17T07:47:21.279Z,70.60
2023-03-17T07:48:21.293Z,71.80
2023-03-17T07:49:38.114Z,72.20
2023-03-17T07:50:21.263Z,70.67
2023-03-17T07:51:21.249Z,70.47
2023-03-17T07:52:21.253Z,71.08
2023-03-17T07:53:21.272Z,71.08
2023-03-17T07:54:21.274Z,71.36
2023-03-17T07:55:21.231Z,70.84
2023-03-17T07:56:21.232Z,71.45
2023-03-17T07:57:21.291Z,72.07
2023-03-17T07:58:21.227Z,70.84
2023-03-17T07:59:21.228Z,69.41
2023-03-17T08:00:21.234Z,69.10
2023-03-17T08:01:21.217Z,69.71
2023-03-17T08:02:21.284Z,69.00
2023-03-17T08:03:21.246Z,69.71
2023-03-17T08:04:21.221Z,69.92
2023-03-17T08:05:21.197Z,69.92
2023-03-17T08:06:21.191Z,69.82
2023-03-17T08:07:21.187Z,69.71
2023-03-17T08:08:21.187Z,69.82
2023-03-17T08:09:21.234Z,69.92
2023-03-17T08:10:21.209Z,70.03
2023-03-17T08:12:21.176Z,70.64
2023-03-17T08:13:21.178Z,69.85
2023-03-17T08:14:21.184Z,70.57
2023-03-17T08:15:21.206Z,71.28
2023-03-17T08:16:21.215Z,70.87
2023-03-17T08:17:21.153Z,71.59
2023-03-17T08:18:21.153Z,70.77
2023-03-17T08:19:21.153Z,69.85
2023-03-17T08:20:21.179Z,71.08
2023-03-17T08:21:21.158Z,71.18
2023-03-17T08:22:21.151Z,70.57
2023-03-17T08:23:21.160Z,70.06
2023-03-17T08:24:21.167Z,70.77
2023-03-17T08:25:21.142Z,71.18
2023-03-17T08:26:21.122Z,71.08
2023-03-17T08:27:21.134Z,69.75
2023-03-17T08:28:21.115Z,69.61
2023-03-17T08:29:21.157Z,70.47
2023-03-17T08:30:21.111Z,71.15
2023-03-17T08:31:21.267Z,70.74
2023-03-17T08:32:21.139Z,70.84
2023-03-17T08:33:21.157Z,71.25
2023-03-17T08:34:21.090Z,69.51
2023-03-17T08:35:21.125Z,69.61
2023-03-17T08:36:21.094Z,71.04
2023-03-17T08:37:21.082Z,70.84
2023-03-17T08:38:21.077Z,69.92
2023-03-17T08:39:21.083Z,69.71
2023-03-17T08:40:21.085Z,71.15
2023-03-17T08:41:21.087Z,71.22
2023-03-17T08:42:21.063Z,71.01
2023-03-17T08:43:21.053Z,70.81
2023-03-17T08:44:21.054Z,69.68
2023-03-17T08:45:21.046Z,69.99
2023-03-17T08:46:21.219Z,69.58
2023-03-17T08:47:21.043Z,70.71
2023-03-17T08:48:21.037Z,70.50
2023-03-17T08:49:21.038Z,71.53
2023-03-17T08:50:21.036Z,70.20
2023-03-17T08:51:24.225Z,70.71
2023-03-17T08:52:21.020Z,72.11
2023-03-17T08:53:21.019Z,71.83
2023-03-17T08:54:21.013Z,72.04
2023-03-17T08:55:21.013Z,73.03
2023-03-17T08:56:21.006Z,72.52
2023-03-17T08:57:21.020Z,71.59
2023-03-17T08:58:21.011Z,69.96
2023-03-17T08:59:20.996Z,70.37
2023-03-17T09:00:20.989Z,71.08
2023-03-17T09:01:21.095Z,69.65
2023-03-17T09:02:21.020Z,70.06
2023-03-17T09:03:20.981Z,69.45
2023-03-17T09:04:20.976Z,69.96
2023-03-17T09:05:20.973Z,69.85
2023-03-17T09:06:20.969Z,70.43
2023-03-17T09:07:20.968Z,69.65
2023-03-17T09:08:20.957Z,68.70
2023-03-17T09:09:20.961Z,70.43
2023-03-17T09:10:20.958Z,69.62
2023-03-17T09:11:20.949Z,69.21
2023-03-17T09:12:20.954Z,68.66
2023-03-17T09:13:20.963Z,68.66
2023-03-17T09:14:20.935Z,69.59
2023-03-17T09:15:20.956Z,69.59
2023-03-17T09:16:20.986Z,70.20
2023-03-17T09:17:20.934Z,70.71
2023-03-17T09:18:22.166Z,72.34
2023-03-17T09:19:20.930Z,71.53
2023-03-17T09:20:20.925Z,69.89
2023-03-17T09:21:20.912Z,70.30
2023-03-17T09:22:20.916Z,69.69
2023-03-17T09:23:20.915Z,69.79
2023-03-17T09:24:20.902Z,71.12
2023-03-17T09:25:20.900Z,69.45
2023-03-17T09:26:20.888Z,69.96
2023-03-17T09:27:20.890Z,67.85
2023-03-17T09:28:20.883Z,69.79
2023-03-17T09:29:20.898Z,70.71
2023-03-17T09:30:20.874Z,70.37
2023-03-17T09:31:20.896Z,70.27
2023-03-17T09:32:20.866Z,68.63
2023-03-17T09:33:20.867Z,69.04
2023-03-17T09:34:20.860Z,69.96
2023-03-17T09:35:20.858Z,68.43
2023-03-17T09:36:20.851Z,69.56
2023-03-17T09:37:20.878Z,69.24
2023-03-17T09:38:20.856Z,68.02
2023-03-17T09:39:20.849Z,70.06
2023-03-17T09:40:20.843Z,68.43
2023-03-17T09:41:20.849Z,69.65
2023-03-17T09:42:20.830Z,70.06
2023-03-17T09:43:20.829Z,69.65
2023-03-17T09:44:20.832Z,68.33
2023-03-17T09:45:20.857Z,68.09
2023-03-17T09:46:20.899Z,68.60
2023-03-17T09:47:20.816Z,67.79
2023-03-17T09:48:20.811Z,68.50
2023-03-17T09:49:20.810Z,69.82
2023-03-17T09:50:20.801Z,68.80
2023-03-17T09:51:20.799Z,68.50
2023-03-17T09:52:20.797Z,69.86
2023-03-17T09:53:20.791Z,69.76
2023-03-17T09:54:20.789Z,70.68
2023-03-17T09:55:20.785Z,70.54
2023-03-17T09:56:20.784Z,68.70
2023-03-17T09:57:20.825Z,69.73
2023-03-17T09:58:20.772Z,66.97
2023-03-17T09:59:20.779Z,68.30
2023-03-17T10:00:20.774Z,69.08
2023-03-17T10:01:20.906Z,68.26
2023-03-17T10:02:20.766Z,69.08
2023-03-17T10:03:20.756Z,67.85
2023-03-17T10:04:20.750Z,68.67
2023-03-17T10:05:20.821Z,69.96
2023-03-17T10:06:20.743Z,67.72
2023-03-17T10:07:20.746Z,68.64
2023-03-17T10:08:30.823Z,66.80
2023-03-17T10:09:20.737Z,67.82
2023-03-17T10:10:20.730Z,69.46
2023-03-17T10:11:20.728Z,67.21
2023-03-17T10:12:20.725Z,68.33
2023-03-17T10:13:20.731Z,67.93
2023-03-17T10:14:20.718Z,68.44
2023-03-17T10:15:20.712Z,67.82
2023-03-17T10:16:20.882Z,66.70
2023-03-17T10:17:20.726Z,68.13
2023-03-17T10:18:20.701Z,68.03
2023-03-17T10:19:20.702Z,68.54
2023-03-17T10:20:20.699Z,69.76
2023-03-17T10:21:20.698Z,71.50
2023-03-17T10:22:20.693Z,67.99
2023-03-17T10:23:20.686Z,68.61
2023-03-17T10:24:20.683Z,67.82
2023-03-17T10:25:20.686Z,69.32
2023-03-17T10:26:20.675Z,69.73
2023-03-17T10:27:20.671Z,68.51
2023-03-17T10:28:20.672Z,67.79
2023-03-17T10:29:20.666Z,68.40
2023-03-17T10:30:20.711Z,69.22
2023-03-17T10:31:20.717Z,68.20
2023-03-17T10:32:20.661Z,68.91
2023-03-17T10:33:20.673Z,69.32
2023-03-17T10:34:20.647Z,69.49
2023-03-17T10:35:20.655Z,67.99
2023-03-17T10:36:20.642Z,68.17
2023-03-17T10:37:20.642Z,68.37
2023-03-17T10:38:20.636Z,68.91
2023-03-17T10:39:20.638Z,70.54
2023-03-17T10:40:20.698Z,68.71
2023-03-17T10:41:20.633Z,69.73
2023-03-17T10:42:20.625Z,68.88
2023-03-17T10:43:20.723Z,68.88
2023-03-17T10:44:20.625Z,66.97
2023-03-17T10:45:20.617Z,66.77
2023-03-17T10:46:20.628Z,67.25
2023-03-17T10:47:20.621Z,67.55
2023-03-17T10:48:20.614Z,66.94
2023-03-17T10:49:20.621Z,67.76
2023-03-17T10:50:20.594Z,67.96
2023-03-17T10:51:20.592Z,67.96
2023-03-17T10:52:20.597Z,67.55
2023-03-17T10:53:20.591Z,69.39
2023-03-17T10:54:20.590Z,67.15
2023-03-17T10:55:20.595Z,68.07
2023-03-17T10:56:20.577Z,69.67
2023-03-17T10:57:20.612Z,69.36
2023-03-17T10:58:20.575Z,69.87
2023-03-17T10:59:20.591Z,69.36
2023-03-17T11:00:20.570Z,68.54
2023-03-17T11:01:20.676Z,67.63
2023-03-17T11:02:20.563Z,68.71
2023-03-17T11:03:20.555Z,65.86
2023-03-17T11:04:20.698Z,64.84
2023-03-17T11:05:20.590Z,64.23
2023-03-17T11:06:20.550Z,64.75
2023-03-17T11:07:20.548Z,66.04
2023-03-17T11:08:20.542Z,66.55
2023-03-17T11:09:20.537Z,65.22
2023-03-17T11:10:20.537Z,64.41
2023-03-17T11:11:21.318Z,64.20
2023-03-17T11:12:20.529Z,65.63
2023-03-17T11:13:20.531Z,65.09
2023-03-17T11:14:20.528Z,66.14
2023-03-17T11:15:20.521Z,66.14
2023-03-17T11:16:20.568Z,64.72
2023-03-17T11:17:20.513Z,64.51
2023-03-17T11:18:20.513Z,64.28
2023-03-17T11:19:20.507Z,64.18
2023-03-17T11:20:20.505Z,65.60
2023-03-17T11:21:20.522Z,66.41
2023-03-17T11:22:20.502Z,66.00
2023-03-17T11:23:20.496Z,66.04
2023-03-17T11:24:20.502Z,65.80
2023-03-17T11:25:20.494Z,67.83
2023-03-17T11:26:20.485Z,64.69
2023-03-17T11:27:20.484Z,65.60
2023-03-17T11:28:20.483Z,67.02
2023-03-17T11:29:20.477Z,65.09
2023-03-17T11:30:20.502Z,64.48
2023-03-17T11:31:20.503Z,64.18
2023-03-17T11:32:20.481Z,64.35
2023-03-17T11:33:20.468Z,65.70
2023-03-17T11:34:20.460Z,65.67
2023-03-17T11:35:20.458Z,64.28
2023-03-17T11:36:20.460Z,64.18
2023-03-17T11:37:20.475Z,64.55
2023-03-17T11:38:20.458Z,64.04
2023-03-17T11:39:20.448Z,64.15
2023-03-17T11:40:20.448Z,64.76
2023-03-17T11:41:20.456Z,64.86
2023-03-17T11:42:20.449Z,64.15
2023-03-17T11:43:20.441Z,62.52
2023-03-17T11:44:20.433Z,64.76
2023-03-17T11:45:20.430Z,64.65
2023-03-17T11:46:20.494Z,67.19
2023-03-17T11:47:20.430Z,66.38
2023-03-17T11:48:20.438Z,66.08
2023-03-17T11:49:20.446Z,64.15
2023-03-17T11:50:20.461Z,64.55
2023-03-17T11:51:20.411Z,63.74
2023-03-17T11:52:20.418Z,64.65
2023-03-17T11:53:20.600Z,63.51
2023-03-17T11:54:20.409Z,62.39
2023-03-17T11:55:20.404Z,62.70
2023-03-17T11:56:20.432Z,64.32
2023-03-17T11:57:20.407Z,64.52
2023-03-17T11:58:20.400Z,62.29
2023-03-17T11:59:20.389Z,62.08
2023-03-17T12:00:20.399Z,63.51
2023-03-17T12:01:20.385Z,63.51
2023-03-17T12:02:20.382Z,63.10
2023-03-17T12:03:20.426Z,63.20
2023-03-17T12:04:20.436Z,63.20
2023-03-17T12:05:20.368Z,63.51
2023-03-17T12:06:20.367Z,64.73
2023-03-17T12:07:20.360Z,64.12
2023-03-17T12:08:20.359Z,63.81
2023-03-17T12:09:20.373Z,63.60
2023-03-17T12:10:20.358Z,64.42
2023-03-17T12:11:20.383Z,64.42
2023-03-17T12:12:20.384Z,64.12
2023-03-17T12:13:20.461Z,63.81
2023-03-17T12:14:20.358Z,63.30
2023-03-17T12:15:20.344Z,62.90
2023-03-17T12:16:20.336Z,64.83
2023-03-17T12:17:20.334Z,64.01
2023-03-17T12:18:20.331Z,63.20
2023-03-17T12:19:20.328Z,64.32
2023-03-17T12:20:20.328Z,64.83
2023-03-17T12:21:20.324Z,63.81
2023-03-17T12:22:20.320Z,64.52
2023-03-17T12:23:20.370Z,65.54
2023-03-17T12:24:20.316Z,63.71
2023-03-17T12:25:20.332Z,63.30
2023-03-17T12:26:20.309Z,64.42
2023-03-17T12:27:20.304Z,64.22
2023-03-17T12:28:20.316Z,63.81
2023-03-17T12:29:20.299Z,64.12
2023-03-17T12:30:20.295Z,63.91
2023-03-17T12:31:20.353Z,64.70
2023-03-17T12:32:20.291Z,64.62
2023-03-17T12:33:20.287Z,64.29
2023-03-17T12:34:20.286Z,64.49
2023-03-17T12:35:20.284Z,64.09
2023-03-17T12:36:20.281Z,64.09
2023-03-17T12:37:20.627Z,64.29
2023-03-17T12:38:20.278Z,64.70
2023-03-17T12:39:20.273Z,65.81
2023-03-17T12:40:20.290Z,64.39
2023-03-17T12:41:20.289Z,63.98
2023-03-17T12:42:20.265Z,63.91
2023-03-17T12:43:20.264Z,63.51
2023-03-17T12:44:20.264Z,63.68
2023-03-17T12:45:20.255Z,65.61
2023-03-17T12:46:20.282Z,63.98
2023-03-17T12:47:20.250Z,62.87
2023-03-17T12:48:20.251Z,63.48
2023-03-17T12:49:20.254Z,64.29
2023-03-17T12:50:20.247Z,63.37
2023-03-17T12:51:20.240Z,64.59
2023-03-17T12:52:20.239Z,64.09
2023-03-17T12:53:20.335Z,64.79
2023-03-17T12:54:20.238Z,64.39